Time;durP1;ratioP1;P1;durP2;ratioP2;P2;SDS_P1;SDS_P2;PMS_P1;PMS_P2;Temp;Humidity;BMP_temperature;BMP_pressure;BME280_temperature;BME280_humidity;BME280_pressure;Samples;Min_cycle;Max_cycle;Signal;HPM_P1;HPM_P2
2022/03/11 00:00:05;;;;;;;18.05;8.77;;;-0.60;29.90;;;;;;5075299;28;20408;-64
2022/03/11 00:03:30;;;;;;;20.45;8.38;;;-0.70;30.10;;;;;;5078928;28;20045;-64
2022/03/11 00:06:56;;;;;;;15.73;7.82;;;-0.70;30.00;;;;;;5077456;28;20039;-64
2022/03/11 00:10:21;;;;;;;16.08;7.95;;;-0.90;30.90;;;;;;5067438;28;20037;-64
2022/03/11 00:13:46;;;;;;;19.27;8.07;;;-0.80;30.80;;;;;;5072655;28;20076;-64
2022/03/11 00:17:11;;;;;;;21.10;8.88;;;-1.00;31.10;;;;;;5075902;28;20054;-64
2022/03/11 00:20:37;;;;;;;19.92;9.13;;;-0.90;30.10;;;;;;5055203;28;20036;-64
2022/03/11 00:24:02;;;;;;;19.48;9.10;;;-0.80;30.50;;;;;;5068907;28;20503;-64
2022/03/11 00:27:27;;;;;;;15.73;8.68;;;-0.90;30.70;;;;;;5058762;28;20094;-63
2022/03/11 00:30:53;;;;;;;16.60;7.68;;;-1.00;31.10;;;;;;5065360;28;20084;-64
2022/03/11 00:34:18;;;;;;;21.40;8.93;;;-1.00;31.10;;;;;;5064255;28;20447;-64
2022/03/11 00:37:44;;;;;;;22.48;9.40;;;-0.90;30.30;;;;;;5069811;28;20047;-64
2022/03/11 00:41:09;;;;;;;18.35;8.73;;;-1.00;30.90;;;;;;5065924;28;20036;-64
2022/03/11 00:44:35;;;;;;;18.48;8.35;;;-1.10;31.40;;;;;;5079717;28;20059;-64
2022/03/11 00:48:00;;;;;;;17.08;7.93;;;-1.10;31.30;;;;;;5063188;28;20145;-64
2022/03/11 00:51:25;;;;;;;22.23;8.82;;;-1.00;30.90;;;;;;5069492;28;20507;-65
2022/03/11 00:54:50;;;;;;;24.77;9.27;;;-1.20;31.10;;;;;;5066514;28;20113;-64
2022/03/11 00:58:16;;;;;;;15.55;8.15;;;-1.20;31.90;;;;;;5065575;28;20551;-64
2022/03/11 01:01:41;;;;;;;18.48;8.20;;;-1.20;31.30;;;;;;5061678;28;20036;-63
2022/03/11 01:05:06;;;;;;;21.85;9.68;;;-1.20;31.60;;;;;;5073880;28;20073;-64
2022/03/11 01:08:32;;;;;;;19.23;10.20;;;-1.20;32.10;;;;;;5064383;28;20510;-64
2022/03/11 01:11:57;;;;;;;19.58;8.68;;;-1.20;31.50;;;;;;5067579;28;20035;-64
2022/03/11 01:15:23;;;;;;;22.67;9.40;;;-1.20;32.30;;;;;;5069288;28;20043;-64
2022/03/11 01:18:48;;;;;;;17.33;8.20;;;-1.40;33.00;;;;;;5071696;28;20036;-64
2022/03/11 01:22:13;;;;;;;20.10;9.18;;;-1.50;33.60;;;;;;5066116;28;20070;-64
2022/03/11 01:25:39;;;;;;;26.60;10.30;;;-1.50;34.00;;;;;;5067936;28;20442;-64
2022/03/11 01:29:04;;;;;;;23.83;10.15;;;-1.60;34.00;;;;;;5063755;28;20146;-64
2022/03/11 01:32:32;;;;;;;25.48;10.10;;;-1.60;34.50;;;;;;5064754;28;20685;-63
2022/03/11 01:35:58;;;;;;;25.80;10.10;;;-1.60;34.90;;;;;;5066606;28;20075;-64
2022/03/11 01:39:23;;;;;;;20.60;9.30;;;-1.70;35.00;;;;;;5061378;28;20037;-64
2022/03/11 01:42:48;;;;;;;23.05;10.27;;;-1.70;34.90;;;;;;5065342;28;20068;-64
2022/03/11 01:46:14;;;;;;;22.02;9.60;;;-1.80;35.80;;;;;;5081649;28;20085;-64
2022/03/11 01:49:39;;;;;;;20.73;9.65;;;-1.70;35.50;;;;;;5084819;28;20039;-64
2022/03/11 01:53:05;;;;;;;21.92;8.50;;;-1.70;35.50;;;;;;5063302;28;20747;-64
2022/03/11 01:56:30;;;;;;;22.05;9.20;;;-1.80;35.80;;;;;;5084823;28;20048;-65
2022/03/11 01:59:55;;;;;;;21.15;9.02;;;-1.70;35.70;;;;;;5088589;28;20058;-64
2022/03/11 02:03:21;;;;;;;27.88;10.85;;;-1.80;36.30;;;;;;5075920;28;20491;-64
2022/03/11 02:06:46;;;;;;;27.00;10.20;;;-1.80;36.60;;;;;;5082879;28;20072;-64
2022/03/11 02:10:11;;;;;;;22.65;10.07;;;-1.90;36.60;;;;;;5048436;28;20040;-64
2022/03/11 02:13:37;;;;;;;21.25;9.45;;;-1.80;36.00;;;;;;5082297;28;20032;-64
2022/03/11 02:17:02;;;;;;;20.58;8.88;;;-1.90;36.70;;;;;;5092423;28;20044;-64
2022/03/11 02:20:28;;;;;;;20.92;9.38;;;-2.10;37.30;;;;;;5069422;28;20423;-63
2022/03/11 02:24:07;;;;;;;22.45;9.30;;;-2.00;37.60;;;;;;5078665;28;20042;-64
2022/03/11 02:27:30;;;;;;;18.75;8.40;;;-2.00;37.40;;;;;;5059059;28;20048;-64
2022/03/11 02:30:56;;;;;;;24.75;9.38;;;-2.00;37.30;;;;;;5084693;28;20070;-64
2022/03/11 02:34:21;;;;;;;21.13;9.27;;;-1.90;37.20;;;;;;5072262;28;20040;-64
2022/03/11 02:37:46;;;;;;;24.90;10.10;;;-2.00;37.60;;;;;;5088450;28;20503;-64
2022/03/11 02:41:12;;;;;;;23.55;9.85;;;-2.10;38.00;;;;;;5086475;28;20089;-64
2022/03/11 02:44:38;;;;;;;19.55;8.70;;;-2.00;37.70;;;;;;5069931;28;20032;-64
2022/03/11 02:48:02;;;;;;;18.67;8.85;;;-2.10;37.80;;;;;;5080359;28;20086;-64
2022/03/11 02:51:28;;;;;;;22.90;10.65;;;-2.10;38.00;;;;;;5051553;28;20319;-64
2022/03/11 02:54:53;;;;;;;19.17;9.02;;;-2.20;38.60;;;;;;5071925;28;20487;-64
2022/03/11 02:58:19;;;;;;;22.48;10.80;;;-2.20;38.30;;;;;;5080727;28;20039;-64
2022/03/11 03:01:44;;;;;;;21.48;9.85;;;-2.20;38.90;;;;;;5088305;28;20036;-64
2022/03/11 03:05:09;;;;;;;19.10;9.63;;;-2.20;38.30;;;;;;5073159;28;20090;-64
2022/03/11 03:08:35;;;;;;;25.20;11.38;;;-2.20;38.60;;;;;;5086342;28;20028;-63
2022/03/11 03:12:00;;;;;;;23.23;10.32;;;-2.20;38.30;;;;;;5091623;28;20608;-64
2022/03/11 03:15:25;;;;;;;20.88;9.00;;;-2.20;38.00;;;;;;5080632;28;20051;-64
2022/03/11 03:18:51;;;;;;;25.33;9.75;;;-2.10;38.10;;;;;;5086246;28;20131;-64
2022/03/11 03:22:16;;;;;;;22.40;10.07;;;-2.10;38.40;;;;;;5090824;28;20039;-65
2022/03/11 03:25:42;;;;;;;21.58;9.20;;;-2.10;37.90;;;;;;5084667;28;20093;-64
2022/03/11 03:29:07;;;;;;;19.98;8.60;;;-2.20;38.30;;;;;;5083151;28;20488;-65
2022/03/11 03:32:32;;;;;;;21.20;9.77;;;-2.30;38.90;;;;;;5091206;28;20024;-64
2022/03/11 03:35:57;;;;;;;18.80;8.88;;;-2.30;39.00;;;;;;5079956;28;20051;-64
2022/03/11 03:39:23;;;;;;;20.70;10.02;;;-2.40;39.30;;;;;;5083441;28;20032;-64
2022/03/11 03:42:48;;;;;;;24.65;9.38;;;-2.30;39.20;;;;;;5079599;28;20074;-64
2022/03/11 03:46:14;;;;;;;23.15;10.57;;;-2.30;39.20;;;;;;5079994;28;20541;-64
2022/03/11 03:49:39;;;;;;;22.13;9.40;;;-2.30;39.10;;;;;;5085265;28;20045;-64
2022/03/11 03:53:04;;;;;;;19.08;8.98;;;-2.40;39.40;;;;;;5085170;28;20047;-64
2022/03/11 03:56:30;;;;;;;20.35;9.07;;;-2.40;38.80;;;;;;5085175;28;20400;-64
2022/03/11 03:59:55;;;;;;;23.83;10.35;;;-2.50;39.80;;;;;;5066191;28;20048;-64
2022/03/11 04:03:29;;;;;;;25.23;9.98;;;-2.50;40.50;;;;;;5079336;28;20039;-65
2022/03/11 04:06:55;;;;;;;20.60;10.73;;;-2.40;40.20;;;;;;5090427;28;20395;-65
2022/03/11 04:10:20;;;;;;;23.38;10.20;;;-2.40;40.00;;;;;;5070080;28;20048;-64
2022/03/11 04:13:46;;;;;;;22.40;9.73;;;-2.50;41.10;;;;;;5052128;28;20041;-64
2022/03/11 04:17:11;;;;;;;20.52;10.27;;;-2.60;40.80;;;;;;5090283;28;20129;-64
2022/03/11 04:20:36;;;;;;;21.35;10.20;;;-2.50;40.90;;;;;;5082112;28;20036;-64
2022/03/11 04:24:02;;;;;;;24.42;10.48;;;-2.60;41.70;;;;;;5082336;28;20443;-64
2022/03/11 04:27:27;;;;;;;24.65;9.38;;;-2.70;41.80;;;;;;5055927;28;20048;-63
2022/03/11 04:30:52;;;;;;;21.52;10.10;;;-2.70;41.40;;;;;;5067354;28;20199;-64
2022/03/11 04:34:18;;;;;;;23.75;10.68;;;-2.80;42.50;;;;;;5083584;28;20036;-64
2022/03/11 04:37:43;;;;;;;25.73;10.13;;;-2.70;43.10;;;;;;5049706;28;20051;-64
2022/03/11 04:41:08;;;;;;;23.98;9.40;;;-2.70;42.60;;;;;;5084257;28;20415;-64
2022/03/11 04:44:34;;;;;;;20.85;9.75;;;-2.80;42.80;;;;;;5084236;28;20031;-64
2022/03/11 04:47:59;;;;;;;23.23;9.90;;;-2.90;43.70;;;;;;5086276;28;20075;-64
2022/03/11 04:51:25;;;;;;;21.70;9.80;;;-2.90;44.00;;;;;;5086116;28;20028;-64
2022/03/11 04:54:50;;;;;;;19.80;9.35;;;-2.90;44.00;;;;;;5065925;28;20105;-64
2022/03/11 04:58:15;;;;;;;23.70;10.18;;;-2.90;44.20;;;;;;5078532;28;20028;-64
2022/03/11 05:01:41;;;;;;;25.90;10.38;;;-3.00;44.90;;;;;;5084169;28;20112;-64
2022/03/11 05:05:06;;;;;;;26.48;10.95;;;-2.90;44.70;;;;;;5067408;28;20626;-64
2022/03/11 05:08:31;;;;;;;20.58;10.13;;;-2.90;44.70;;;;;;5075379;28;20032;-64
2022/03/11 05:11:57;;;;;;;24.60;10.73;;;-3.00;44.40;;;;;;5079727;28;20443;-65
2022/03/11 05:15:24;;;;;;;26.17;11.07;;;-3.00;45.50;;;;;;5047651;28;20092;-64
2022/03/11 05:18:47;;;;;;;25.25;9.88;;;-3.00;45.20;;;;;;5083668;28;20038;-63
2022/03/11 05:22:13;;;;;;;28.42;11.23;;;-2.90;45.20;;;;;;5068515;28;20040;-64
2022/03/11 05:25:38;;;;;;;28.40;12.23;;;-2.80;44.60;;;;;;5076875;28;20415;-63
2022/03/11 05:28:23;;;;;;;21.45;10.73;;;-2.90;44.30;;;;;;5082134;28;20089;-60
2022/03/11 05:31:29;;;;;;;26.38;12.43;;;-2.90;45.20;;;;;;5085611;28;20040;-60
2022/03/11 05:34:54;;;;;;;28.08;12.38;;;-2.90;46.90;;;;;;5087759;28;20126;-58
2022/03/11 05:38:20;;;;;;;27.80;11.55;;;-2.90;45.20;;;;;;5063096;28;20028;-58
2022/03/11 05:41:46;;;;;;;24.92;12.00;;;-2.80;44.40;;;;;;5084342;28;20580;-54
2022/03/11 05:45:10;;;;;;;29.20;12.13;;;-2.80;44.80;;;;;;5046871;28;20037;-59
2022/03/11 05:48:36;;;;;;;24.90;10.57;;;-2.80;44.40;;;;;;5083716;28;20032;-60
2022/03/11 05:52:01;;;;;;;26.52;10.48;;;-2.90;44.70;;;;;;5083183;28;20431;-58
2022/03/11 05:55:26;;;;;;;24.27;10.95;;;-2.90;45.20;;;;;;5077539;28;20052;-59
2022/03/11 05:58:52;;;;;;;25.88;10.55;;;-2.80;45.00;;;;;;5064575;28;20028;-58
2022/03/11 06:02:17;;;;;;;25.42;11.75;;;-2.80;44.60;;;;;;5077345;28;20039;-59
2022/03/11 06:05:43;;;;;;;29.45;12.82;;;-2.60;43.50;;;;;;5077327;28;20082;-59
2022/03/11 06:09:08;;;;;;;24.58;11.88;;;-2.40;41.90;;;;;;5084250;28;20066;-59
2022/03/11 06:12:33;;;;;;;25.33;11.85;;;-1.40;38.90;;;;;;5075525;28;20028;-56
2022/03/11 06:15:59;;;;;;;27.23;11.95;;;-0.40;31.40;;;;;;5073917;28;20059;-58
2022/03/11 06:19:24;;;;;;;29.65;13.25;;;0.80;27.60;;;;;;5084091;28;20052;-57
2022/03/11 06:22:50;;;;;;;23.45;10.93;;;2.70;21.30;;;;;;5088329;28;20040;-57
2022/03/11 06:26:15;;;;;;;22.63;11.63;;;4.10;18.00;;;;;;5068050;28;20399;-58
2022/03/11 06:29:40;;;;;;;30.63;13.00;;;5.30;14.90;;;;;;5080485;28;20033;-58
2022/03/11 06:33:06;;;;;;;25.33;12.32;;;5.30;13.50;;;;;;5086178;28;20410;-58
2022/03/11 06:36:34;;;;;;;25.75;12.38;;;6.00;12.90;;;;;;5079992;28;20036;-58
2022/03/11 06:39:56;;;;;;;19.08;9.60;;;6.50;11.10;;;;;;5047398;28;20127;-58
2022/03/11 06:43:22;;;;;;;24.95;12.63;;;7.00;9.20;;;;;;5080071;28;20031;-58
2022/03/11 06:46:47;;;;;;;22.05;11.75;;;7.80;9.20;;;;;;5082242;28;20584;-57
2022/03/11 06:50:12;;;;;;;27.25;12.18;;;7.50;8.50;;;;;;5076732;28;20024;-58
2022/03/11 06:53:38;;;;;;;24.88;12.52;;;6.90;8.40;;;;;;5084185;28;20384;-58
2022/03/11 06:57:03;;;;;;;23.27;12.57;;;7.30;8.60;;;;;;5066658;28;20024;-57
2022/03/11 07:00:28;;;;;;;21.05;12.27;;;7.90;7.70;;;;;;5088362;28;20472;-58
2022/03/11 07:03:54;;;;;;;24.65;13.05;;;8.30;7.80;;;;;;5080567;28;20090;-59
2022/03/11 07:07:19;;;;;;;23.17;12.82;;;8.50;6.50;;;;;;5072623;28;20060;-58
2022/03/11 07:10:45;;;;;;;24.15;12.88;;;8.10;6.10;;;;;;5085872;28;20036;-59
2022/03/11 07:14:10;;;;;;;24.70;12.63;;;8.00;6.60;;;;;;5089945;28;20062;-59
2022/03/11 07:17:35;;;;;;;25.33;12.10;;;7.90;5.70;;;;;;5076044;28;20490;-58
2022/03/11 07:21:01;;;;;;;29.05;13.30;;;8.40;5.90;;;;;;5049738;28;20041;-59
2022/03/11 07:24:26;;;;;;;24.85;12.68;;;8.20;5.20;;;;;;5090823;28;20034;-59
2022/03/11 07:27:52;;;;;;;25.23;13.10;;;7.90;5.50;;;;;;5085762;28;20032;-58
2022/03/11 07:31:17;;;;;;;25.65;13.63;;;8.70;4.50;;;;;;5078066;28;20476;-58
2022/03/11 07:34:42;;;;;;;22.50;12.52;;;8.00;5.30;;;;;;5050634;28;20053;-59
2022/03/11 07:38:08;;;;;;;24.38;12.63;;;7.80;5.20;;;;;;5084512;28;20479;-57
2022/03/11 07:41:33;;;;;;;24.25;12.98;;;8.20;4.90;;;;;;5077786;28;20031;-59
2022/03/11 07:44:59;;;;;;;23.90;12.75;;;9.60;3.40;;;;;;5050922;28;20477;-59
2022/03/11 07:48:24;;;;;;;22.40;11.75;;;9.40;2.90;;;;;;5084426;28;20089;-59
2022/03/11 07:51:49;;;;;;;24.73;13.65;;;9.90;2.40;;;;;;5072483;28;20025;-59
2022/03/11 07:55:16;;;;;;;20.00;12.15;;;9.50;2.40;;;;;;5079711;28;20044;-59
2022/03/11 07:58:41;;;;;;;28.08;13.85;;;9.00;2.80;;;;;;5077399;28;20102;-59
2022/03/11 08:02:05;;;;;;;19.13;11.73;;;8.60;3.40;;;;;;5084557;28;20032;-59
2022/03/11 08:05:31;;;;;;;24.95;13.25;;;10.00;2.60;;;;;;5075089;28;20032;-59
2022/03/11 08:08:56;;;;;;;23.75;13.00;;;8.50;2.50;;;;;;5083664;28;20321;-59
2022/03/11 08:12:21;;;;;;;23.08;13.13;;;9.40;3.00;;;;;;5072521;28;20041;-59
2022/03/11 08:15:47;;;;;;;25.55;12.90;;;9.50;2.00;;;;;;5080564;28;20044;-59
2022/03/11 08:19:12;;;;;;;22.25;12.95;;;9.60;2.10;;;;;;5086620;28;20123;-59
2022/03/11 08:22:38;;;;;;;24.45;12.55;;;9.90;2.10;;;;;;5062651;28;20447;-59
2022/03/11 08:26:03;;;;;;;23.23;13.02;;;9.90;1.10;;;;;;5076729;28;20052;-59
2022/03/11 08:29:33;;;;;;;23.77;13.93;;;9.40;1.40;;;;;;5087102;28;20028;-58
2022/03/11 08:32:55;;;;;;;24.27;12.45;;;9.40;1.40;;;;;;5079224;28;20038;-59
2022/03/11 08:36:19;;;;;;;21.52;11.50;;;10.60;1.20;;;;;;5076390;28;20036;-59
2022/03/11 08:39:44;;;;;;;19.15;11.98;;;9.90;1.00;;;;;;5089597;28;20407;-59
2022/03/11 08:43:10;;;;;;;24.88;12.90;;;10.20;1.00;;;;;;5084439;28;20105;-59
2022/03/11 08:46:36;;;;;;;24.40;13.05;;;9.80;1.00;;;;;;5076084;28;20281;-59
2022/03/11 08:50:02;;;;;;;22.73;12.43;;;10.20;1.00;;;;;;5049205;28;20033;-59
2022/03/11 08:53:26;;;;;;;21.30;12.90;;;9.80;1.00;;;;;;5086494;28;20561;-59
2022/03/11 08:56:54;;;;;;;20.67;11.88;;;10.40;1.00;;;;;;5080931;28;20093;-59
2022/03/11 09:00:19;;;;;;;19.85;11.88;;;11.00;1.00;;;;;;5049402;28;20033;-59
2022/03/11 09:03:45;;;;;;;20.80;12.05;;;12.00;1.00;;;;;;5077987;28;20032;-59
2022/03/11 09:07:10;;;;;;;21.13;11.90;;;10.90;1.00;;;;;;5067027;28;20046;-59
2022/03/11 09:10:35;;;;;;;21.92;12.75;;;10.50;1.00;;;;;;5078467;28;20070;-59
2022/03/11 09:14:01;;;;;;;21.05;11.65;;;9.50;1.00;;;;;;5078291;28;20044;-59
2022/03/11 09:17:26;;;;;;;22.23;12.35;;;10.60;1.00;;;;;;5071519;28;20036;-59
2022/03/11 09:20:53;;;;;;;17.88;11.43;;;11.10;1.00;;;;;;5084551;28;20032;-59
2022/03/11 09:24:17;;;;;;;18.38;11.90;;;10.40;1.00;;;;;;5084952;28;20523;-59
2022/03/11 09:27:42;;;;;;;20.83;11.65;;;9.90;1.00;;;;;;5060251;28;20047;-59
2022/03/11 09:31:08;;;;;;;21.60;11.07;;;9.80;1.00;;;;;;5075861;28;20040;-59
2022/03/11 09:34:33;;;;;;;23.67;10.95;;;10.60;1.00;;;;;;5048721;28;20052;-59
2022/03/11 09:37:58;;;;;;;23.95;11.60;;;10.70;1.00;;;;;;5080203;28;20040;-59
2022/03/11 09:41:24;;;;;;;22.10;12.50;;;10.20;1.00;;;;;;5075631;28;20407;-59
2022/03/11 09:44:49;;;;;;;18.08;10.38;;;10.00;1.00;;;;;;5049146;28;20036;-59
2022/03/11 09:48:15;;;;;;;25.00;11.50;;;9.80;1.00;;;;;;5084621;28;20407;-59
2022/03/11 09:51:45;;;;;;;18.38;11.38;;;9.90;1.00;;;;;;5083002;28;20051;-59
2022/03/11 09:55:08;;;;;;;22.63;11.50;;;9.40;1.00;;;;;;5047920;28;20560;-59
2022/03/11 09:58:34;;;;;;;18.73;10.93;;;9.00;1.00;;;;;;5086544;28;20032;-59
2022/03/11 10:01:59;;;;;;;22.05;11.02;;;10.00;1.00;;;;;;5067089;28;20478;-59
2022/03/11 10:05:27;;;;;;;15.63;9.55;;;10.00;1.00;;;;;;5077549;28;20047;-59
2022/03/11 10:08:33;;;;;;;;;;;9.90;1.00;;;;;;5078167;28;20518;-59
2022/03/11 10:11:59;;;;;;;18.67;10.35;;;10.10;1.00;;;;;;5063116;28;20303;-59
2022/03/11 10:15:26;;;;;;;22.83;9.57;;;10.90;1.00;;;;;;5048140;28;20040;-59
2022/03/11 10:18:49;;;;;;;22.15;12.23;;;10.80;1.00;;;;;;5084869;28;20471;-59
2022/03/11 10:22:17;;;;;;;20.33;10.10;;;9.70;1.00;;;;;;5065465;28;20063;-59
2022/03/11 10:25:09;;;;;;;16.65;9.65;;;9.60;1.00;;;;;;5076985;28;20040;-59
2022/03/11 10:28:35;;;;;;;17.70;9.10;;;9.30;1.00;;;;;;5044297;28;20072;-59
2022/03/11 10:32:01;;;;;;;18.80;9.55;;;8.90;1.00;;;;;;5067155;28;20519;-59
2022/03/11 10:35:28;;;;;;;16.08;8.30;;;7.10;1.00;;;;;;5086225;28;20163;-59
2022/03/11 10:38:54;;;;;;;19.00;9.52;;;5.80;2.70;;;;;;5081065;28;20040;-59
2022/03/11 10:42:19;;;;;;;21.10;8.43;;;5.20;4.10;;;;;;5071863;28;20412;-59
2022/03/11 10:45:47;;;;;;;15.18;8.55;;;4.90;3.70;;;;;;5082703;28;20081;-59
2022/03/11 10:48:59;;;;;;;;;;;4.70;4.80;;;;;;5088906;28;20044;-59
2022/03/11 10:52:24;;;;;;;15.20;7.60;;;4.90;5.00;;;;;;5073407;28;20379;-59
2022/03/11 10:55:39;;;;;;;16.85;9.73;;;4.70;4.60;;;;;;5083285;28;20044;-59
2022/03/11 10:59:01;;;;;;;17.90;7.68;;;4.80;4.60;;;;;;5091407;28;20075;-59
2022/03/11 11:02:27;;;;;;;18.10;8.65;;;4.80;4.70;;;;;;5071741;28;20051;-59
2022/03/11 11:05:52;;;;;;;18.27;8.07;;;4.90;4.00;;;;;;5080876;28;20118;-59
2022/03/11 11:09:17;;;;;;;16.50;7.70;;;4.80;3.60;;;;;;5087050;28;20032;-59
2022/03/11 11:12:43;;;;;;;15.63;7.75;;;4.80;4.30;;;;;;5072129;28;20037;-59
2022/03/11 11:16:08;;;;;;;17.88;7.80;;;4.90;4.20;;;;;;5086268;28;20036;-59
2022/03/11 11:19:34;;;;;;;14.88;8.15;;;5.00;4.30;;;;;;5093499;28;20028;-59
2022/03/11 11:22:59;;;;;;;15.20;8.50;;;5.20;3.50;;;;;;5082375;28;20059;-59
2022/03/11 11:26:24;;;;;;;17.30;7.32;;;5.30;3.90;;;;;;5078643;28;20100;-59
2022/03/11 11:29:11;;;;;;;15.00;7.50;;;5.40;3.50;;;;;;5050790;28;20536;-57
2022/03/11 11:31:37;;;;;;;13.52;6.68;;;5.40;3.10;;;;;;5088571;28;20035;-55
2022/03/11 11:34:03;;;;;;;17.90;7.22;;;5.50;2.50;;;;;;5091116;28;20040;-51
2022/03/11 11:36:37;;;;;;;14.57;6.88;;;5.40;1.70;;;;;;5089067;28;20031;-51
2022/03/11 11:39:08;;;;;;;13.63;7.38;;;5.40;2.40;;;;;;5091233;28;20062;-52
2022/03/11 11:41:35;;;;;;;16.42;7.90;;;5.50;2.40;;;;;;5069470;28;20384;-54
2022/03/11 11:44:02;;;;;;;20.23;8.63;;;5.70;2.90;;;;;;5091320;28;20082;-56
2022/03/11 11:46:30;;;;;;;15.00;7.50;;;5.80;2.60;;;;;;5089205;28;20028;-50
2022/03/11 11:48:57;;;;;;;15.38;7.15;;;5.80;1.60;;;;;;5090612;28;20020;-55
2022/03/11 11:51:24;;;;;;;13.05;6.30;;;5.70;1.90;;;;;;5089122;28;20023;-53
2022/03/11 11:53:55;;;;;;;15.10;6.70;;;5.70;1.50;;;;;;5090819;28;20040;-55
2022/03/11 11:56:30;;;;;;;17.55;6.43;;;5.60;1.50;;;;;;5065602;28;20359;-53
2022/03/11 11:59:14;;;;;;;12.57;6.28;;;5.70;1.40;;;;;;5050684;28;20029;-55
2022/03/11 12:01:45;;;;;;;13.73;6.07;;;5.70;1.40;;;;;;5076271;28;20029;-55
2022/03/11 12:04:27;;;;;;;12.82;5.97;;;5.80;1.00;;;;;;5090329;28;20121;-55
2022/03/11 12:07:14;;;;;;;14.77;7.30;;;5.80;1.00;;;;;;5061639;28;20041;-53
2022/03/11 12:09:42;;;;;;;13.80;6.47;;;5.80;1.00;;;;;;5050453;28;20013;-56
2022/03/11 12:12:28;;;;;;;11.48;5.97;;;5.90;1.00;;;;;;5073180;28;20467;-54
2022/03/11 12:15:00;;;;;;;13.68;5.75;;;6.10;1.00;;;;;;5050490;28;20116;-56
2022/03/11 12:17:46;;;;;;;12.02;6.15;;;6.20;1.00;;;;;;5070005;28;20036;-52
2022/03/11 12:20:24;;;;;;;12.30;5.97;;;6.10;1.00;;;;;;5050224;28;20033;-55
2022/03/11 12:23:03;;;;;;;11.45;6.00;;;6.20;1.00;;;;;;5050206;28;20082;-56
2022/03/11 12:25:35;;;;;;;13.50;6.28;;;6.10;1.00;;;;;;5073142;28;20044;-54
2022/03/11 12:28:12;;;;;;;13.43;6.00;;;6.20;1.00;;;;;;5084210;28;20032;-56
2022/03/11 12:30:41;;;;;;;12.45;5.63;;;6.20;1.00;;;;;;5053170;28;20036;-54
2022/03/11 12:33:13;;;;;;;11.57;5.57;;;6.30;1.00;;;;;;5090081;28;20016;-56
2022/03/11 12:35:39;;;;;;;11.32;4.95;;;6.30;1.00;;;;;;5053497;28;20102;-54
2022/03/11 12:38:10;;;;;;;10.98;5.28;;;6.40;1.00;;;;;;5090111;28;20032;-52
2022/03/11 12:40:36;;;;;;;14.80;5.65;;;6.40;1.00;;;;;;5052649;28;20098;-57
2022/03/11 12:43:04;;;;;;;15.15;5.53;;;6.50;1.00;;;;;;5089806;28;20028;-56
2022/03/11 12:45:32;;;;;;;14.80;5.53;;;6.60;1.00;;;;;;5088086;28;20426;-54
2022/03/11 12:47:58;;;;;;;12.05;4.78;;;6.60;1.00;;;;;;5089701;28;20107;-54
2022/03/11 12:50:24;;;;;;;10.00;5.20;;;6.60;1.00;;;;;;5087666;28;20111;-56
2022/03/11 12:52:50;;;;;;;12.43;5.70;;;6.60;1.00;;;;;;5089925;28;20039;-56
2022/03/11 12:55:22;;;;;;;12.20;4.97;;;6.70;1.00;;;;;;5088750;28;20054;-57
2022/03/11 12:57:52;;;;;;;16.30;5.22;;;6.70;1.00;;;;;;5089913;28;20043;-54
2022/03/11 13:00:22;;;;;;;18.90;5.35;;;6.70;1.00;;;;;;5089605;28;20386;-55
2022/03/11 13:02:49;;;;;;;8.60;4.50;;;6.70;1.00;;;;;;5089677;28;20525;-55
2022/03/11 13:05:26;;;;;;;12.43;5.13;;;6.70;1.00;;;;;;5089334;28;20024;-52
2022/03/11 13:07:53;;;;;;;9.68;4.80;;;6.80;1.00;;;;;;5089550;28;20119;-54
2022/03/11 13:10:24;;;;;;;10.40;5.40;;;6.90;1.00;;;;;;5089129;28;20134;-56
2022/03/11 13:12:52;;;;;;;11.98;5.07;;;6.90;1.00;;;;;;5089276;28;20038;-56
2022/03/11 13:15:23;;;;;;;11.65;5.00;;;6.90;1.00;;;;;;5089159;28;20028;-57
2022/03/11 13:18:29;;;;;;;11.43;4.72;;;6.90;1.00;;;;;;5066360;28;20081;-57
2022/03/11 13:21:54;;;;;;;8.25;4.35;;;6.90;1.00;;;;;;5077264;28;20551;-57
2022/03/11 13:25:23;;;;;;;14.65;5.03;;;6.90;1.00;;;;;;5084966;28;20323;-54
2022/03/11 13:28:49;;;;;;;10.95;4.60;;;6.90;1.00;;;;;;5060274;28;20033;-54
2022/03/11 13:32:13;;;;;;;10.90;4.10;;;7.00;1.00;;;;;;5084908;28;20384;-54
2022/03/11 13:35:47;;;;;;;8.52;4.25;;;7.00;1.00;;;;;;5082763;28;20062;-56
2022/03/11 13:38:53;;;;;;;9.07;4.40;;;7.20;1.00;;;;;;5077883;28;20032;-55
2022/03/11 13:42:34;;;;;;;11.10;4.75;;;7.00;1.00;;;;;;5046171;28;20235;-55
2022/03/11 13:45:59;;;;;;;8.80;4.90;;;6.90;1.00;;;;;;5079774;28;20101;-57
2022/03/11 13:49:24;;;;;;;8.57;4.10;;;7.00;1.00;;;;;;5065782;28;20040;-53
2022/03/11 13:52:53;;;;;;;11.30;4.88;;;7.00;1.00;;;;;;5075282;28;20097;-56
2022/03/11 13:56:15;;;;;;;9.32;3.88;;;7.00;1.00;;;;;;5087903;28;20119;-55
2022/03/11 13:59:46;;;;;;;7.75;3.90;;;7.00;1.00;;;;;;5063494;28;20041;-55
2022/03/11 14:03:12;;;;;;;8.50;4.10;;;7.10;1.00;;;;;;5065208;28;20143;-57
2022/03/11 14:06:49;;;;;;;9.23;4.82;;;7.10;1.00;;;;;;5079062;28;20038;-55
2022/03/11 14:10:14;;;;;;;7.95;4.32;;;7.20;1.00;;;;;;5065501;28;20067;-55
2022/03/11 14:13:43;;;;;;;8.48;3.80;;;7.20;1.00;;;;;;5081051;28;20598;-55
2022/03/11 14:17:11;;;;;;;10.50;4.07;;;7.20;1.00;;;;;;5065141;28;20371;-55
2022/03/11 14:20:36;;;;;;;9.25;4.32;;;7.20;1.00;;;;;;5060441;28;20400;-56
2022/03/11 14:24:01;;;;;;;12.32;4.78;;;7.30;1.00;;;;;;5071564;28;20064;-56
2022/03/11 14:27:33;;;;;;;9.35;4.22;;;7.30;1.00;;;;;;5054511;28;20126;-56
2022/03/11 14:30:38;;;;;;;8.85;4.32;;;7.20;1.00;;;;;;5074815;28;20043;-54
2022/03/11 14:33:04;;;;;;;8.85;4.57;;;7.20;1.00;;;;;;5054678;28;20031;-55
2022/03/11 14:35:30;;;;;;;9.65;5.05;;;7.20;1.00;;;;;;5086027;28;20060;-55
2022/03/11 14:37:55;;;;;;;9.77;4.50;;;7.20;1.00;;;;;;5071124;28;20549;-56
2022/03/11 14:40:21;;;;;;;6.57;4.03;;;7.20;1.00;;;;;;5073734;28;20045;-56
2022/03/11 14:42:48;;;;;;;10.23;4.20;;;7.10;1.00;;;;;;5083415;28;20030;-56
2022/03/11 14:45:14;;;;;;;11.90;5.05;;;7.10;1.00;;;;;;5085686;28;20054;-55
2022/03/11 14:47:41;;;;;;;8.80;4.63;;;7.10;1.00;;;;;;5083694;28;20431;-57
2022/03/11 14:50:10;;;;;;;8.00;4.43;;;7.10;1.00;;;;;;5085946;28;20070;-57
2022/03/11 14:52:36;;;;;;;9.52;4.15;;;7.10;1.00;;;;;;5074900;28;20068;-56
2022/03/11 14:55:02;;;;;;;9.23;4.03;;;7.00;1.00;;;;;;5064137;28;20731;-57
2022/03/11 14:57:29;;;;;;;7.70;4.00;;;7.00;1.00;;;;;;5071121;28;20032;-56
2022/03/11 14:59:54;;;;;;;10.85;4.47;;;7.00;1.00;;;;;;5085656;28;20085;-56
2022/03/11 15:02:20;;;;;;;9.77;4.57;;;7.00;1.00;;;;;;5083666;28;20035;-57
2022/03/11 15:04:45;;;;;;;9.30;4.22;;;7.00;1.00;;;;;;5085894;28;20043;-57
2022/03/11 15:07:11;;;;;;;11.70;4.85;;;7.00;1.00;;;;;;5085531;28;20074;-57
2022/03/11 15:09:37;;;;;;;7.53;3.83;;;7.00;1.00;;;;;;5063933;28;20056;-57
2022/03/11 15:12:04;;;;;;;11.43;3.97;;;7.00;1.00;;;;;;5065341;28;20480;-55
2022/03/11 15:14:30;;;;;;;13.50;5.13;;;7.00;1.00;;;;;;5063783;28;20036;-56
2022/03/11 15:16:55;;;;;;;11.82;4.35;;;6.90;1.00;;;;;;5082891;28;20499;-57
2022/03/11 15:19:21;;;;;;;8.43;4.70;;;6.90;1.00;;;;;;5069772;28;20056;-57
2022/03/11 15:21:47;;;;;;;11.20;4.05;;;6.90;1.00;;;;;;5088453;28;20563;-57
2022/03/11 15:24:13;;;;;;;9.82;4.32;;;6.90;1.00;;;;;;5072875;28;20056;-58
2022/03/11 15:26:38;;;;;;;10.40;4.07;;;6.90;1.00;;;;;;5085325;28;20073;-57
2022/03/11 15:29:03;;;;;;;6.32;3.58;;;6.80;1.00;;;;;;5087016;28;20028;-58
2022/03/11 15:31:30;;;;;;;8.73;3.67;;;6.80;1.00;;;;;;5080717;28;20096;-57
2022/03/11 15:33:56;;;;;;;8.48;4.05;;;6.80;1.00;;;;;;5072257;28;20072;-57
2022/03/11 15:36:22;;;;;;;9.32;4.13;;;6.80;1.00;;;;;;5079812;28;20487;-57
2022/03/11 15:38:48;;;;;;;7.82;3.70;;;6.70;1.00;;;;;;5084815;28;20032;-57
2022/03/11 15:41:16;;;;;;;11.15;4.70;;;6.60;1.00;;;;;;5078298;28;20059;-57
2022/03/11 15:43:42;;;;;;;10.20;5.10;;;6.60;1.00;;;;;;5068089;28;20123;-57
2022/03/11 15:46:08;;;;;;;9.77;4.40;;;6.50;1.00;;;;;;5070272;28;20132;-57
2022/03/11 15:48:33;;;;;;;7.75;4.28;;;6.50;1.00;;;;;;5068597;28;20039;-57
2022/03/11 15:50:59;;;;;;;8.65;4.18;;;6.40;1.00;;;;;;5087989;28;20032;-58
2022/03/11 15:53:24;;;;;;;8.73;3.53;;;6.40;1.00;;;;;;5070237;28;20606;-55
2022/03/11 15:55:50;;;;;;;8.45;4.05;;;6.40;1.00;;;;;;5077508;28;20043;-57
2022/03/11 15:58:16;;;;;;;6.70;3.90;;;6.40;1.00;;;;;;5070597;28;20028;-57
2022/03/11 16:00:42;;;;;;;7.82;4.03;;;6.40;1.00;;;;;;5087878;28;20032;-57
2022/03/11 16:03:08;;;;;;;5.30;3.58;;;6.40;1.00;;;;;;5072635;28;20403;-56
2022/03/11 16:05:38;;;;;;;14.70;4.63;;;6.30;1.00;;;;;;5087549;28;20106;-56
2022/03/11 16:08:08;;;;;;;7.43;3.85;;;6.30;1.00;;;;;;5072923;28;20817;-57
2022/03/11 16:10:33;;;;;;;6.18;3.47;;;6.20;1.00;;;;;;5088062;28;20028;-55
2022/03/11 16:13:01;;;;;;;7.07;3.72;;;6.10;1.00;;;;;;5074491;28;20039;-56
2022/03/11 16:15:28;;;;;;;14.38;3.90;;;6.00;1.00;;;;;;5088421;28;20086;-57
2022/03/11 16:17:54;;;;;;;12.63;4.00;;;6.10;1.00;;;;;;5076370;28;20024;-57
2022/03/11 16:20:20;;;;;;;7.85;4.22;;;6.10;1.00;;;;;;5089837;28;20021;-56
2022/03/11 16:22:46;;;;;;;8.20;4.10;;;6.00;1.00;;;;;;5088428;28;20115;-56